sensor_id;sensor_type;location;lat;lon;timestamp;pressure;altitude;pressure_sealevel;temperature;humidity
54546;BME280;40444;45.184;9.850;2023-12-29T00:01:42;101758.94;;;9.45;100.00
54546;BME280;40444;45.184;9.850;2023-12-29T00:04:10;101753.47;;;9.46;100.00
54546;BME280;40444;45.184;9.850;2023-12-29T00:06:39;101758.81;;;9.46;100.00
54546;BME280;40444;45.184;9.850;2023-12-29T00:09:23;101763.97;;;9.49;100.00
54546;BME280;40444;45.184;9.850;2023-12-29T00:11:52;101762.81;;;9.53;100.00
54546;BME280;40444;45.184;9.850;2023-12-29T00:14:22;101757.66;;;9.50;100.00
54546;BME280;40444;45.184;9.850;2023-12-29T00:16:50;101768.59;;;9.47;100.00
54546;BME280;40444;45.184;9.850;2023-12-29T00:19:19;101770.72;;;9.55;100.00
54546;BME280;40444;45.184;9.850;2023-12-29T00:21:48;101772.00;;;9.49;100.00
54546;BME280;40444;45.184;9.850;2023-12-29T00:24:17;101769.13;;;9.52;100.00
54546;BME280;40444;45.184;9.850;2023-12-29T00:26:45;101761.19;;;9.51;100.00
54546;BME280;40444;45.184;9.850;2023-12-29T00:29:14;101750.59;;;9.49;100.00
54546;BME280;40444;45.184;9.850;2023-12-29T00:31:43;101760.34;;;9.50;100.00
54546;BME280;40444;45.184;9.850;2023-12-29T00:34:12;101757.78;;;9.49;100.00
54546;BME280;40444;45.184;9.850;2023-12-29T00:36:40;101755.56;;;9.55;100.00
54546;BME280;40444;45.184;9.850;2023-12-29T00:39:08;101748.47;;;9.54;100.00
54546;BME280;40444;45.184;9.850;2023-12-29T00:41:38;101743.66;;;9.59;100.00
54546;BME280;40444;45.184;9.850;2023-12-29T00:44:08;101747.13;;;9.61;100.00
54546;BME280;40444;45.184;9.850;2023-12-29T00:46:36;101750.22;;;9.68;100.00
54546;BME280;40444;45.184;9.850;2023-12-29T00:49:05;101751.00;;;9.70;100.00
54546;BME280;40444;45.184;9.850;2023-12-29T00:51:39;101753.66;;;9.70;100.00
54546;BME280;40444;45.184;9.850;2023-12-29T00:54:09;101736.84;;;9.68;100.00
54546;BME280;40444;45.184;9.850;2023-12-29T00:56:38;101742.75;;;9.73;100.00
54546;BME280;40444;45.184;9.850;2023-12-29T00:59:06;101744.66;;;9.71;100.00
54546;BME280;40444;45.184;9.850;2023-12-29T01:01:35;101736.28;;;9.63;100.00
54546;BME280;40444;45.184;9.850;2023-12-29T01:04:04;101740.28;;;9.70;100.00
54546;BME280;40444;45.184;9.850;2023-12-29T01:06:33;101742.97;;;9.70;100.00
54546;BME280;40444;45.184;9.850;2023-12-29T01:09:02;101744.25;;;9.65;100.00
54546;BME280;40444;45.184;9.850;2023-12-29T01:11:30;101752.03;;;9.68;100.00
54546;BME280;40444;45.184;9.850;2023-12-29T01:13:59;101743.78;;;9.58;100.00
54546;BME280;40444;45.184;9.850;2023-12-29T01:16:27;101734.78;;;9.59;100.00
54546;BME280;40444;45.184;9.850;2023-12-29T01:18:56;101737.69;;;9.56;100.00
54546;BME280;40444;45.184;9.850;2023-12-29T01:21:25;101735.09;;;9.54;100.00
54546;BME280;40444;45.184;9.850;2023-12-29T01:23:55;101736.19;;;9.52;100.00
54546;BME280;40444;45.184;9.850;2023-12-29T01:26:24;101743.03;;;9.56;100.00
54546;BME280;40444;45.184;9.850;2023-12-29T01:28:52;101740.13;;;9.59;100.00
54546;BME280;40444;45.184;9.850;2023-12-29T01:31:22;101737.25;;;9.62;100.00
54546;BME280;40444;45.184;9.850;2023-12-29T01:33:51;101734.16;;;9.55;100.00
54546;BME280;40444;45.184;9.850;2023-12-29T01:36:20;101734.78;;;9.59;100.00
54546;BME280;40444;45.184;9.850;2023-12-29T01:38:52;101738.97;;;9.63;100.00
54546;BME280;40444;45.184;9.850;2023-12-29T01:41:21;101737.38;;;9.60;100.00
54546;BME280;40444;45.184;9.850;2023-12-29T01:46:33;101742.72;;;9.60;100.00
54546;BME280;40444;45.184;9.850;2023-12-29T01:49:03;101732.00;;;9.48;100.00
54546;BME280;40444;45.184;9.850;2023-12-29T01:51:32;101736.47;;;9.47;100.00
54546;BME280;40444;45.184;9.850;2023-12-29T01:54:01;101741.59;;;9.50;100.00
54546;BME280;40444;45.184;9.850;2023-12-29T01:56:30;101731.03;;;9.49;100.00
54546;BME280;40444;45.184;9.850;2023-12-29T01:58:58;101727.78;;;9.44;100.00
54546;BME280;40444;45.184;9.850;2023-12-29T02:01:38;101734.03;;;9.57;100.00
54546;BME280;40444;45.184;9.850;2023-12-29T02:04:08;101733.28;;;9.55;100.00
54546;BME280;40444;45.184;9.850;2023-12-29T02:06:38;101724.47;;;9.40;100.00
54546;BME280;40444;45.184;9.850;2023-12-29T02:09:08;101726.41;;;9.51;100.00
54546;BME280;40444;45.184;9.850;2023-12-29T02:11:36;101721.94;;;9.51;100.00
54546;BME280;40444;45.184;9.850;2023-12-29T02:14:06;101719.56;;;9.47;100.00
54546;BME280;40444;45.184;9.850;2023-12-29T02:21:51;101704.50;;;9.58;100.00
54546;BME280;40444;45.184;9.850;2023-12-29T02:24:20;101693.13;;;9.55;100.00
54546;BME280;40444;45.184;9.850;2023-12-29T02:26:53;101691.19;;;9.44;100.00
54546;BME280;40444;45.184;9.850;2023-12-29T02:29:27;101690.22;;;9.45;100.00
54546;BME280;40444;45.184;9.850;2023-12-29T02:31:59;101683.72;;;9.49;100.00
54546;BME280;40444;45.184;9.850;2023-12-29T02:34:29;101673.66;;;9.53;100.00
54546;BME280;40444;45.184;9.850;2023-12-29T02:37:02;101666.63;;;9.52;100.00
54546;BME280;40444;45.184;9.850;2023-12-29T02:39:31;101668.75;;;9.47;100.00
54546;BME280;40444;45.184;9.850;2023-12-29T02:42:00;101665.19;;;9.46;100.00
54546;BME280;40444;45.184;9.850;2023-12-29T02:44:28;101669.06;;;9.55;100.00
54546;BME280;40444;45.184;9.850;2023-12-29T02:46:57;101667.97;;;9.45;100.00
54546;BME280;40444;45.184;9.850;2023-12-29T02:49:28;101663.72;;;9.42;100.00
54546;BME280;40444;45.184;9.850;2023-12-29T02:51:56;101664.31;;;9.33;100.00
54546;BME280;40444;45.184;9.850;2023-12-29T02:54:25;101665.50;;;9.42;100.00
54546;BME280;40444;45.184;9.850;2023-12-29T02:56:54;101659.53;;;9.51;100.00
54546;BME280;40444;45.184;9.850;2023-12-29T02:59:22;101661.47;;;9.49;100.00
54546;BME280;40444;45.184;9.850;2023-12-29T03:01:51;101651.50;;;9.38;100.00
54546;BME280;40444;45.184;9.850;2023-12-29T03:04:19;101654.66;;;9.18;100.00
54546;BME280;40444;45.184;9.850;2023-12-29T03:06:48;101650.41;;;9.41;100.00
54546;BME280;40444;45.184;9.850;2023-12-29T03:09:16;101650.06;;;9.32;100.00
54546;BME280;40444;45.184;9.850;2023-12-29T03:11:46;101643.47;;;9.38;100.00
54546;BME280;40444;45.184;9.850;2023-12-29T03:14:15;101653.94;;;9.41;100.00
54546;BME280;40444;45.184;9.850;2023-12-29T03:16:43;101653.94;;;9.41;100.00
54546;BME280;40444;45.184;9.850;2023-12-29T03:19:12;101660.19;;;9.54;100.00
54546;BME280;40444;45.184;9.850;2023-12-29T03:21:41;101653.88;;;9.55;100.00
54546;BME280;40444;45.184;9.850;2023-12-29T03:24:10;101658.34;;;9.55;100.00
54546;BME280;40444;45.184;9.850;2023-12-29T03:26:38;101656.44;;;9.57;100.00
54546;BME280;40444;45.184;9.850;2023-12-29T03:29:07;101660.50;;;9.62;100.00
54546;BME280;40444;45.184;9.850;2023-12-29T03:31:36;101654.72;;;9.69;100.00
54546;BME280;40444;45.184;9.850;2023-12-29T03:34:04;101653.88;;;9.68;100.00
54546;BME280;40444;45.184;9.850;2023-12-29T03:36:33;101643.72;;;9.73;100.00
54546;BME280;40444;45.184;9.850;2023-12-29T03:39:02;101638.38;;;9.73;100.00
54546;BME280;40444;45.184;9.850;2023-12-29T03:41:31;101640.94;;;9.75;100.00
54546;BME280;40444;45.184;9.850;2023-12-29T03:43:59;101619.41;;;9.76;100.00
54546;BME280;40444;45.184;9.850;2023-12-29T03:46:28;101619.31;;;9.78;100.00
54546;BME280;40444;45.184;9.850;2023-12-29T03:48:57;101622.63;;;9.81;100.00
54546;BME280;40444;45.184;9.850;2023-12-29T03:51:26;101624.25;;;9.84;100.00
54546;BME280;40444;45.184;9.850;2023-12-29T03:53:55;101632.25;;;9.84;100.00
54546;BME280;40444;45.184;9.850;2023-12-29T03:56:25;101635.25;;;9.79;100.00
54546;BME280;40444;45.184;9.850;2023-12-29T03:58:53;101611.06;;;9.81;100.00
54546;BME280;40444;45.184;9.850;2023-12-29T04:01:21;101612.16;;;9.78;100.00
54546;BME280;40444;45.184;9.850;2023-12-29T04:03:51;101610.00;;;9.83;100.00
54546;BME280;40444;45.184;9.850;2023-12-29T04:06:20;101603.56;;;9.86;100.00
54546;BME280;40444;45.184;9.850;2023-12-29T04:08:48;101604.66;;;9.83;100.00
54546;BME280;40444;45.184;9.850;2023-12-29T04:11:17;101602.50;;;9.88;100.00
54546;BME280;40444;45.184;9.850;2023-12-29T04:13:46;101598.75;;;9.91;100.00
54546;BME280;40444;45.184;9.850;2023-12-29T04:16:14;101605.38;;;9.85;100.00
54546;BME280;40444;45.184;9.850;2023-12-29T04:18:43;101599.81;;;9.88;100.00
54546;BME280;40444;45.184;9.850;2023-12-29T04:21:15;101594.13;;;9.93;100.00
54546;BME280;40444;45.184;9.850;2023-12-29T04:23:43;101600.56;;;9.91;100.00
54546;BME280;40444;45.184;9.850;2023-12-29T04:26:12;101596.94;;;9.92;100.00
54546;BME280;40444;45.184;9.850;2023-12-29T04:28:42;101608.50;;;9.92;100.00
54546;BME280;40444;45.184;9.850;2023-12-29T04:31:10;101602.28;;;9.92;100.00
54546;BME280;40444;45.184;9.850;2023-12-29T04:33:42;101602.16;;;9.93;100.00
54546;BME280;40444;45.184;9.850;2023-12-29T04:36:11;101597.66;;;9.81;100.00
54546;BME280;40444;45.184;9.850;2023-12-29T04:38:40;101592.13;;;9.84;100.00
54546;BME280;40444;45.184;9.850;2023-12-29T04:41:11;101591.16;;;9.85;100.00
54546;BME280;40444;45.184;9.850;2023-12-29T04:43:40;101597.47;;;9.84;100.00
54546;BME280;40444;45.184;9.850;2023-12-29T04:46:08;101589.66;;;9.81;100.00
54546;BME280;40444;45.184;9.850;2023-12-29T04:48:36;101578.53;;;9.87;100.00
54546;BME280;40444;45.184;9.850;2023-12-29T04:51:05;101580.31;;;9.86;100.00
54546;BME280;40444;45.184;9.850;2023-12-29T04:53:34;101573.56;;;9.94;100.00
54546;BME280;40444;45.184;9.850;2023-12-29T04:56:02;101583.22;;;9.96;100.00
54546;BME280;40444;45.184;9.850;2023-12-29T04:58:31;101576.38;;;9.92;100.00
54546;BME280;40444;45.184;9.850;2023-12-29T05:00:59;101575.09;;;9.85;100.00
54546;BME280;40444;45.184;9.850;2023-12-29T05:03:27;101581.84;;;9.78;100.00
54546;BME280;40444;45.184;9.850;2023-12-29T05:05:56;101587.94;;;9.80;100.00
54546;BME280;40444;45.184;9.850;2023-12-29T05:08:25;101587.09;;;9.79;100.00
54546;BME280;40444;45.184;9.850;2023-12-29T05:10:53;101591.69;;;9.77;100.00
54546;BME280;40444;45.184;9.850;2023-12-29T05:13:23;101586.97;;;9.81;100.00
54546;BME280;40444;45.184;9.850;2023-12-29T05:15:52;101604.44;;;9.74;100.00
54546;BME280;40444;45.184;9.850;2023-12-29T05:18:20;101597.47;;;9.71;100.00
54546;BME280;40444;45.184;9.850;2023-12-29T05:20:49;101598.25;;;9.73;100.00
54546;BME280;40444;45.184;9.850;2023-12-29T05:23:17;101590.81;;;9.77;100.00
54546;BME280;40444;45.184;9.850;2023-12-29T05:25:46;101596.69;;;9.82;100.00
54546;BME280;40444;45.184;9.850;2023-12-29T05:28:14;101594.03;;;9.82;100.00
54546;BME280;40444;45.184;9.850;2023-12-29T05:30:43;101604.19;;;9.90;100.00
54546;BME280;40444;45.184;9.850;2023-12-29T05:33:11;101597.03;;;9.90;100.00
54546;BME280;40444;45.184;9.850;2023-12-29T05:35:40;101595.19;;;9.91;100.00
54546;BME280;40444;45.184;9.850;2023-12-29T05:38:09;101593.09;;;9.83;100.00
54546;BME280;40444;45.184;9.850;2023-12-29T05:40:37;101596.63;;;9.83;100.00
54546;BME280;40444;45.184;9.850;2023-12-29T05:43:06;101606.88;;;9.77;100.00
54546;BME280;40444;45.184;9.850;2023-12-29T05:45:35;101609.16;;;9.83;100.00
54546;BME280;40444;45.184;9.850;2023-12-29T05:48:03;101609.56;;;9.77;100.00
54546;BME280;40444;45.184;9.850;2023-12-29T05:50:32;101605.38;;;9.73;100.00
54546;BME280;40444;45.184;9.850;2023-12-29T20:31:08;101442.34;;;7.88;100.00
54546;BME280;40444;45.184;9.850;2023-12-29T20:33:38;101446.72;;;7.89;100.00
54546;BME280;40444;45.184;9.850;2023-12-29T20:36:07;101436.53;;;7.96;100.00
54546;BME280;40444;45.184;9.850;2023-12-29T20:38:35;101427.44;;;7.98;100.00
54546;BME280;40444;45.184;9.850;2023-12-29T20:41:04;101431.44;;;8.05;100.00
54546;BME280;40444;45.184;9.850;2023-12-29T20:43:33;101426.38;;;8.28;100.00
54546;BME280;40444;45.184;9.850;2023-12-29T20:46:01;101429.28;;;8.65;100.00
54546;BME280;40444;45.184;9.850;2023-12-29T20:48:30;101422.88;;;9.05;100.00
54546;BME280;40444;45.184;9.850;2023-12-29T20:51:00;101423.69;;;9.44;100.00
54546;BME280;40444;45.184;9.850;2023-12-29T20:53:37;101435.69;;;9.88;100.00
54546;BME280;40444;45.184;9.850;2023-12-29T20:56:09;101441.84;;;10.01;100.00
54546;BME280;40444;45.184;9.850;2023-12-29T20:58:38;101440.19;;;10.11;100.00
54546;BME280;40444;45.184;9.850;2023-12-29T21:01:07;101446.53;;;10.34;100.00
54546;BME280;40444;45.184;9.850;2023-12-29T21:03:39;101449.06;;;10.60;100.00
54546;BME280;40444;45.184;9.850;2023-12-29T21:06:15;101449.63;;;10.87;100.00
54546;BME280;40444;45.184;9.850;2023-12-29T21:08:44;101444.03;;;10.91;100.00
54546;BME280;40444;45.184;9.850;2023-12-29T21:11:17;101447.69;;;10.90;100.00
54546;BME280;40444;45.184;9.850;2023-12-29T21:13:47;101454.00;;;10.88;100.00
54546;BME280;40444;45.184;9.850;2023-12-29T21:16:17;101451.13;;;11.14;100.00
54546;BME280;40444;45.184;9.850;2023-12-29T21:18:47;101442.00;;;11.17;100.00
54546;BME280;40444;45.184;9.850;2023-12-29T21:21:20;101443.81;;;11.16;100.00
54546;BME280;40444;45.184;9.850;2023-12-29T21:23:48;101447.22;;;11.18;100.00
54546;BME280;40444;45.184;9.850;2023-12-29T21:26:21;101449.56;;;11.23;100.00
54546;BME280;40444;45.184;9.850;2023-12-29T21:28:50;101440.88;;;11.19;100.00
54546;BME280;40444;45.184;9.850;2023-12-29T21:31:19;101441.84;;;11.29;100.00
54546;BME280;40444;45.184;9.850;2023-12-29T21:33:48;101445.91;;;11.35;100.00
54546;BME280;40444;45.184;9.850;2023-12-29T21:36:22;101445.88;;;11.24;100.00
54546;BME280;40444;45.184;9.850;2023-12-29T21:38:54;101449.19;;;11.27;100.00
54546;BME280;40444;45.184;9.850;2023-12-29T21:41:23;101444.19;;;11.34;100.00
54546;BME280;40444;45.184;9.850;2023-12-29T21:43:52;101443.81;;;11.27;100.00
54546;BME280;40444;45.184;9.850;2023-12-29T21:46:20;101447.72;;;11.23;100.00
54546;BME280;40444;45.184;9.850;2023-12-29T21:48:52;101440.03;;;11.41;100.00
54546;BME280;40444;45.184;9.850;2023-12-29T21:51:24;101447.47;;;11.37;100.00
54546;BME280;40444;45.184;9.850;2023-12-29T21:53:53;101445.03;;;11.46;100.00
54546;BME280;40444;45.184;9.850;2023-12-29T21:56:22;101439.56;;;11.36;100.00
54546;BME280;40444;45.184;9.850;2023-12-29T21:58:50;101434.31;;;11.34;100.00
54546;BME280;40444;45.184;9.850;2023-12-29T22:01:35;101449.19;;;11.27;100.00
54546;BME280;40444;45.184;9.850;2023-12-29T22:04:08;101446.84;;;11.34;100.00
54546;BME280;40444;45.184;9.850;2023-12-29T22:06:40;101446.38;;;11.29;100.00
54546;BME280;40444;45.184;9.850;2023-12-29T22:09:09;101446.38;;;11.29;100.00
54546;BME280;40444;45.184;9.850;2023-12-29T22:11:38;101450.03;;;11.28;100.00
54546;BME280;40444;45.184;9.850;2023-12-29T22:14:06;101454.31;;;11.42;100.00
54546;BME280;40444;45.184;9.850;2023-12-29T22:16:35;101439.91;;;11.43;100.00
54546;BME280;40444;45.184;9.850;2023-12-29T22:19:04;101443.56;;;11.42;100.00
54546;BME280;40444;45.184;9.850;2023-12-29T22:21:34;101443.94;;;11.48;100.00
54546;BME280;40444;45.184;9.850;2023-12-29T22:24:02;101431.38;;;11.49;100.00
54546;BME280;40444;45.184;9.850;2023-12-29T22:26:32;101433.56;;;11.55;100.00
54546;BME280;40444;45.184;9.850;2023-12-29T22:29:03;101428.94;;;11.57;100.00
54546;BME280;40444;45.184;9.850;2023-12-29T22:31:32;101435.03;;;11.59;100.00
54546;BME280;40444;45.184;9.850;2023-12-29T22:34:01;101423.69;;;11.55;100.00
54546;BME280;40444;45.184;9.850;2023-12-29T22:36:30;101415.00;;;11.52;100.00
54546;BME280;40444;45.184;9.850;2023-12-29T22:38:59;101417.34;;;11.56;100.00
54546;BME280;40444;45.184;9.850;2023-12-29T22:41:27;101426.38;;;11.67;100.00
54546;BME280;40444;45.184;9.850;2023-12-29T22:43:56;101420.38;;;11.63;100.00
54546;BME280;40444;45.184;9.850;2023-12-29T22:46:25;101421.47;;;11.60;100.00
54546;BME280;40444;45.184;9.850;2023-12-29T22:48:55;101414.78;;;11.66;100.00
54546;BME280;40444;45.184;9.850;2023-12-29T22:51:24;101417.09;;;11.71;100.00
54546;BME280;40444;45.184;9.850;2023-12-29T22:53:53;101417.94;;;11.71;100.00
54546;BME280;40444;45.184;9.850;2023-12-29T22:56:22;101411.94;;;11.68;100.00
54546;BME280;40444;45.184;9.850;2023-12-29T22:58:51;101421.84;;;11.67;100.00
54546;BME280;40444;45.184;9.850;2023-12-29T23:01:20;101412.81;;;11.68;100.00
54546;BME280;40444;45.184;9.850;2023-12-29T23:03:49;101413.56;;;11.70;100.00
54546;BME280;40444;45.184;9.850;2023-12-29T23:06:18;101410.63;;;11.62;100.00
54546;BME280;40444;45.184;9.850;2023-12-29T23:08:47;101404.28;;;11.63;100.00
54546;BME280;40444;45.184;9.850;2023-12-29T23:11:15;101411.34;;;11.64;100.00
54546;BME280;40444;45.184;9.850;2023-12-29T23:13:44;101400.50;;;11.54;100.00
54546;BME280;40444;45.184;9.850;2023-12-29T23:16:13;101393.19;;;11.45;100.00
54546;BME280;40444;45.184;9.850;2023-12-29T23:18:41;101397.59;;;11.46;100.00
54546;BME280;40444;45.184;9.850;2023-12-29T23:21:13;101401.38;;;11.44;100.00
54546;BME280;40444;45.184;9.850;2023-12-29T23:23:42;101399.66;;;11.43;100.00
54546;BME280;40444;45.184;9.850;2023-12-29T23:26:10;101401.72;;;11.50;100.00
54546;BME280;40444;45.184;9.850;2023-12-29T23:28:38;101406.97;;;11.63;100.00
54546;BME280;40444;45.184;9.850;2023-12-29T23:31:07;101402.56;;;11.62;100.00
54546;BME280;40444;45.184;9.850;2023-12-29T23:33:37;101405.16;;;11.52;100.00
54546;BME280;40444;45.184;9.850;2023-12-29T23:36:10;101391.50;;;11.44;100.00
54546;BME280;40444;45.184;9.850;2023-12-29T23:38:38;101392.22;;;11.46;100.00
54546;BME280;40444;45.184;9.850;2023-12-29T23:41:06;101405.28;;;11.39;100.00
54546;BME280;40444;45.184;9.850;2023-12-29T23:43:35;101393.81;;;11.37;100.00
54546;BME280;40444;45.184;9.850;2023-12-29T23:46:04;101393.44;;;11.53;100.00
54546;BME280;40444;45.184;9.850;2023-12-29T23:48:33;101394.16;;;11.55;100.00
54546;BME280;40444;45.184;9.850;2023-12-29T23:51:02;101386.25;;;11.54;100.00
54546;BME280;40444;45.184;9.850;2023-12-29T23:53:31;101387.09;;;11.54;100.00
54546;BME280;40444;45.184;9.850;2023-12-29T23:56:00;101378.31;;;11.52;100.00
54546;BME280;40444;45.184;9.850;2023-12-29T23:58:28;101379.28;;;11.51;100.00
